Time;durP1;ratioP1;P1;durP2;ratioP2;P2;SDS_P1;SDS_P2;PMS_P1;PMS_P2;Temp;Humidity;BMP_temperature;BMP_pressure;BME280_temperature;BME280_humidity;BME280_pressure;Samples;Min_cycle;Max_cycle;Signal;HPM_P1;HPM_P2
2022/11/04 00:01:59;;;;;;;;;;;9.90;99.90;;;;;;5098603;28;20268;-70
2022/11/04 00:04:28;;;;;;;;;;;10.00;99.90;;;;;;5103908;28;19982;-71
2022/11/04 00:06:55;;;;;;;;;;;10.00;99.90;;;;;;5103365;28;20268;-70
2022/11/04 00:09:23;;;;;;;;;;;10.00;99.90;;;;;;5103589;28;19987;-70
2022/11/04 00:14:34;;;;;;;;;;;10.10;99.90;;;;;;5093962;23;19993;-89
2022/11/04 00:17:18;;;;;;;;;;;10.10;99.90;;;;;;5054703;28;19921;-89
2022/11/04 00:30:48;;;;;;;;;;;10.20;99.90;;;;;;5070926;28;19924;-89
2022/11/04 00:33:26;;;;;;;;;;;10.10;99.90;;;;;;5063556;28;19943;-89
2022/11/04 00:35:56;;;;;;;;;;;10.10;99.90;;;;;;5065454;28;19939;-89
2022/11/04 00:38:22;;;;;;;;;;;10.10;99.90;;;;;;5066952;28;19927;-89
2022/11/04 00:40:49;;;;;;;;;;;10.10;99.90;;;;;;5066983;28;19944;-90
2022/11/04 00:43:16;;;;;;;;;;;10.10;99.90;;;;;;5066633;28;19940;-89
2022/11/04 00:45:43;;;;;;;;;;;10.00;99.90;;;;;;5066054;28;19920;-89
2022/11/04 00:48:11;;;;;;;;;;;10.00;99.90;;;;;;5066515;28;20179;-90
2022/11/04 00:50:38;;;;;;;;;;;10.00;99.90;;;;;;5066348;28;19921;-89
2022/11/04 00:53:06;;;;;;;;;;;10.00;99.90;;;;;;5066224;28;19944;-90
2022/11/04 00:55:33;;;;;;;;;;;10.00;99.90;;;;;;5065820;28;19927;-89
2022/11/04 00:58:00;;;;;;;;;;;10.00;99.90;;;;;;5066357;28;19980;-89
2022/11/04 01:00:27;;;;;;;;;;;10.00;99.90;;;;;;5066337;28;20003;-89
2022/11/04 01:02:54;;;;;;;;;;;9.90;99.90;;;;;;5066068;28;20224;-89
2022/11/04 01:05:20;;;;;;;;;;;9.90;99.90;;;;;;5065585;28;19920;-89
2022/11/04 01:07:47;;;;;;;;;;;9.90;99.90;;;;;;5072877;28;19927;-90
2022/11/04 01:10:15;;;;;;;;;;;9.90;99.90;;;;;;5086048;28;19924;-90
2022/11/04 01:12:42;;;;;;;;;;;9.90;99.90;;;;;;5086045;28;19947;-90
2022/11/04 01:15:09;;;;;;;;;;;9.80;99.90;;;;;;5087672;22;19944;-68
2022/11/04 01:17:35;;;;;;;;;;;9.80;99.90;;;;;;5046040;28;19963;-68
2022/11/04 01:20:02;;;;;;;;;;;9.80;99.90;;;;;;5046353;28;19984;-70
2022/11/04 01:22:29;;;;;;;;;;;9.80;99.90;;;;;;5046212;28;19921;-68
2022/11/04 01:24:55;;;;;;;;;;;9.80;99.90;;;;;;5045759;28;19956;-68
2022/11/04 01:27:23;;;;;;;;;;;9.80;99.90;;;;;;5046115;28;19952;-68
2022/11/04 01:29:50;;;;;;;;;;;9.70;99.90;;;;;;5046031;28;19963;-67
2022/11/04 01:32:17;;;;;;;;;;;9.70;99.90;;;;;;5045912;28;20023;-69
2022/11/04 01:34:43;;;;;;;;;;;9.70;99.90;;;;;;5045529;28;19956;-68
2022/11/04 01:37:10;;;;;;;;;;;9.70;99.90;;;;;;5045869;28;19988;-68
2022/11/04 01:39:37;;;;;;;;;;;9.80;99.90;;;;;;5045811;28;19983;-69
2022/11/04 01:42:03;;;;;;;;;;;9.80;99.90;;;;;;5045794;28;19999;-68
2022/11/04 01:44:51;;;;;;;;;;;9.80;99.90;;;;;;5045253;28;19956;-69
2022/11/04 01:47:20;;;;;;;;;;;9.80;99.90;;;;;;5040317;28;19921;-68
2022/11/04 01:49:48;;;;;;;;;;;9.80;99.90;;;;;;5045650;28;19922;-68
2022/11/04 01:52:16;;;;;;;;;;;9.80;99.90;;;;;;5045648;28;19963;-67
2022/11/04 01:54:45;;;;;;;;;;;9.80;99.90;;;;;;5045242;28;19960;-69
2022/11/04 01:57:13;;;;;;;;;;;9.80;99.90;;;;;;5045282;28;19984;-68
2022/11/04 01:59:40;;;;;;;;;;;9.70;99.90;;;;;;5045458;28;19956;-67
2022/11/04 02:02:07;;;;;;;;;;;9.70;99.90;;;;;;5040626;28;19928;-67
2022/11/04 02:04:36;;;;;;;;;;;9.80;99.90;;;;;;5045101;28;19971;-68
2022/11/04 02:07:04;;;;;;;;;;;9.80;99.90;;;;;;5044842;28;19980;-70
2022/11/04 02:09:32;;;;;;;;;;;9.80;99.90;;;;;;5044939;28;19927;-70
2022/11/04 02:14:43;;;;;;;;;;;9.70;99.90;;;;;;5044030;28;19956;-70
2022/11/04 02:17:15;;;;;;;;;;;9.70;99.90;;;;;;5044876;28;19984;-67
2022/11/04 02:20:09;;;;;;;;;;;9.70;99.90;;;;;;5045184;28;19988;-70
2022/11/04 02:22:52;;;;;;;;;;;9.70;99.90;;;;;;4998699;28;19984;-67
2022/11/04 02:25:30;;;;;;;;;;;9.70;99.90;;;;;;5044686;28;20190;-68
2022/11/04 02:28:08;;;;;;;;;;;9.70;99.90;;;;;;5044957;28;20161;-68
2022/11/04 02:30:42;;;;;;;;;;;9.60;99.90;;;;;;5044843;28;19921;-69
2022/11/04 02:33:17;;;;;;;;;;;9.60;99.90;;;;;;5044910;28;19959;-69
2022/11/04 02:35:50;;;;;;;;;;;9.70;99.90;;;;;;5044496;28;19959;-69
2022/11/04 02:38:21;;;;;;;;;;;9.70;99.90;;;;;;5044444;28;19992;-69
2022/11/04 02:40:51;;;;;;;;;;;9.70;99.90;;;;;;5044764;28;19971;-68
2022/11/04 02:43:22;;;;;;;;;;;9.70;99.90;;;;;;5044535;28;19996;-68
2022/11/04 02:45:52;;;;;;;;;;;9.60;99.90;;;;;;5044299;28;20022;-69
2022/11/04 02:48:23;;;;;;;;;;;9.70;99.90;;;;;;5043490;28;20379;-67
2022/11/04 02:50:53;;;;;;;;;;;9.70;99.90;;;;;;5044527;28;19993;-67
2022/11/04 02:53:21;;;;;;;;;;;9.70;99.90;;;;;;5044425;28;19952;-68
2022/11/04 02:55:49;;;;;;;;;;;9.70;99.90;;;;;;5043813;28;19952;-69
2022/11/04 02:58:21;;;;;;;;;;;9.70;99.90;;;;;;5044010;28;19960;-68
2022/11/04 03:00:49;;;;;;;;;;;9.70;99.90;;;;;;5044390;28;19984;-68
2022/11/04 03:03:19;;;;;;;;;;;9.70;99.90;;;;;;5043945;28;19952;-71
2022/11/04 03:05:47;;;;;;;;;;;9.70;99.90;;;;;;5043993;28;20001;-68
2022/11/04 03:08:16;;;;;;;;;;;9.70;99.90;;;;;;5034178;28;20001;-69
2022/11/04 03:10:44;;;;;;;;;;;9.70;99.90;;;;;;5024390;28;20004;-68
2022/11/04 03:13:13;;;;;;;;;;;9.70;99.90;;;;;;5024472;28;20061;-68
2022/11/04 03:15:40;;;;;;;;;;;9.70;99.90;;;;;;5023923;28;19921;-70
2022/11/04 03:18:13;;;;;;;;;;;9.70;99.90;;;;;;5024420;28;19988;-68
2022/11/04 03:20:42;;;;;;;;;;;9.70;99.90;;;;;;5024056;28;20268;-69
2022/11/04 03:23:09;;;;;;;;;;;9.70;99.90;;;;;;5024385;28;19992;-68
2022/11/04 03:25:37;;;;;;;;;;;9.70;99.90;;;;;;5023955;28;19967;-69
2022/11/04 03:28:05;;;;;;;;;;;9.70;99.90;;;;;;5024415;28;20165;-68
2022/11/04 03:30:37;;;;;;;;;;;9.70;99.90;;;;;;5024015;28;19988;-69
2022/11/04 03:33:06;;;;;;;;;;;9.70;99.90;;;;;;5024310;28;19953;-69
2022/11/04 03:35:33;;;;;;;;;;;9.70;99.90;;;;;;5023589;28;19945;-68
2022/11/04 03:38:03;;;;;;;;;;;9.60;99.90;;;;;;5023461;28;20183;-68
2022/11/04 03:40:30;;;;;;;;;;;9.70;99.90;;;;;;5024283;28;20185;-69
2022/11/04 03:42:59;;;;;;;;;;;9.70;99.90;;;;;;5023714;28;19988;-70
2022/11/04 03:45:26;;;;;;;;;;;9.60;99.90;;;;;;5023178;28;19921;-68
2022/11/04 03:47:53;;;;;;;;;;;9.60;99.90;;;;;;5023779;28;20247;-70
2022/11/04 03:50:23;;;;;;;;;;;9.60;99.90;;;;;;5024146;28;19971;-68
2022/11/04 03:52:50;;;;;;;;;;;9.60;99.90;;;;;;5024043;28;19992;-68
2022/11/04 03:55:18;;;;;;;;;;;9.50;99.90;;;;;;5023784;28;19960;-69
2022/11/04 03:58:13;;;;;;;;;;;9.50;99.90;;;;;;5034717;28;19984;-69
2022/11/04 04:00:45;;;;;;;;;;;9.50;99.90;;;;;;5043372;28;19988;-69
2022/11/04 04:03:15;;;;;;;;;;;9.60;99.90;;;;;;5039611;28;19980;-68
2022/11/04 04:05:44;;;;;;;;;;;9.50;99.90;;;;;;5043204;28;20036;-68
2022/11/04 04:08:14;;;;;;;;;;;9.50;99.90;;;;;;5033904;28;19949;-70
2022/11/04 04:10:48;;;;;;;;;;;9.50;99.90;;;;;;5026298;28;20181;-68
2022/11/04 04:13:21;;;;;;;;;;;9.50;99.90;;;;;;5027468;28;19993;-68
2022/11/04 04:15:50;;;;;;;;;;;9.50;99.90;;;;;;5026911;28;20004;-69
2022/11/04 04:18:18;;;;;;;;;;;9.50;99.90;;;;;;5027566;28;19921;-68
2022/11/04 04:20:46;;;;;;;;;;;9.50;99.90;;;;;;5027505;28;19979;-68
2022/11/04 04:28:45;;;;;;;;;;;9.50;99.90;;;;;;4994589;28;19960;-68
2022/11/04 04:31:48;;;;;;;;;;;9.50;99.90;;;;;;5027325;28;19984;-69
2022/11/04 04:34:01;;;;;;;;;;;9.50;99.90;;;;;;5026920;28;20101;-68
2022/11/04 04:36:29;;;;;;;;;;;9.50;99.90;;;;;;5027041;28;19959;-68
2022/11/04 04:47:18;;;;;;;;;;;9.40;99.90;;;;;;5026859;28;19924;-68
2022/11/04 04:49:51;;;;;;;;;;;9.40;99.90;;;;;;5027097;28;19921;-68
2022/11/04 04:52:19;;;;;;;;;;;9.40;99.90;;;;;;5026590;28;19984;-68
2022/11/04 04:54:46;;;;;;;;;;;9.40;99.90;;;;;;5026276;28;19993;-67
2022/11/04 04:57:13;;;;;;;;;;;9.40;99.90;;;;;;5026570;28;19985;-70
2022/11/04 04:59:40;;;;;;;;;;;9.40;99.90;;;;;;5026571;28;19984;-70
2022/11/04 05:02:07;;;;;;;;;;;9.40;99.90;;;;;;5038071;28;19988;-69
2022/11/04 05:04:33;;;;;;;;;;;9.30;99.90;;;;;;5046122;28;19987;-68
2022/11/04 05:07:00;;;;;;;;;;;9.30;99.90;;;;;;5045936;28;20267;-68
2022/11/04 05:09:27;;;;;;;;;;;9.40;99.90;;;;;;5046320;28;19921;-68
2022/11/04 05:11:54;;;;;;;;;;;9.30;99.90;;;;;;5046217;28;20191;-69
2022/11/04 05:14:22;;;;;;;;;;;9.30;99.90;;;;;;5046265;28;19956;-68
2022/11/04 05:16:48;;;;;;;;;;;9.30;99.90;;;;;;5045400;28;19943;-68
2022/11/04 05:19:15;;;;;;;;;;;9.20;99.90;;;;;;5046110;28;19989;-68
2022/11/04 05:21:41;;;;;;;;;;;9.20;99.90;;;;;;5045900;28;19964;-69
2022/11/04 05:24:08;;;;;;;;;;;9.10;99.90;;;;;;5045790;28;20259;-67
2022/11/04 05:26:35;;;;;;;;;;;9.10;99.90;;;;;;5045884;28;19967;-67
2022/11/04 05:29:01;;;;;;;;;;;9.10;99.90;;;;;;5045780;28;19984;-68
2022/11/04 05:31:29;;;;;;;;;;;9.00;99.90;;;;;;5046016;28;19992;-68
2022/11/04 05:33:57;;;;;;;;;;;9.00;99.90;;;;;;5045930;28;19925;-69
2022/11/04 05:36:24;;;;;;;;;;;9.00;99.90;;;;;;5045702;28;19953;-68
2022/11/04 05:38:51;;;;;;;;;;;9.00;99.90;;;;;;5045836;28;19997;-67
2022/11/04 05:41:24;;;;;;;;;;;9.00;99.90;;;;;;5045821;28;19983;-68
2022/11/04 05:43:51;;;;;;;;;;;9.00;99.90;;;;;;5045832;28;19992;-67
2022/11/04 05:46:18;;;;;;;;;;;9.00;99.90;;;;;;5045346;28;19993;-68
2022/11/04 05:48:45;;;;;;;;;;;8.90;99.90;;;;;;5045553;28;19921;-68
2022/11/04 05:51:12;;;;;;;;;;;8.90;99.90;;;;;;5045702;28;20180;-68
2022/11/04 05:53:39;;;;;;;;;;;8.90;99.90;;;;;;5045203;28;19988;-67
2022/11/04 05:56:06;;;;;;;;;;;8.90;99.90;;;;;;5057743;28;19963;-67
2022/11/04 05:58:33;;;;;;;;;;;8.90;99.90;;;;;;5065220;28;20228;-68
2022/11/04 06:01:11;;;;;;;;;;;8.90;99.90;;;;;;5065028;28;19963;-68
2022/11/04 06:03:49;;;;;;;;;;;8.80;99.90;;;;;;5061714;28;20085;-68
2022/11/04 06:06:15;;;;;;;;;;;8.80;99.90;;;;;;5036869;28;19980;-68
2022/11/04 06:08:42;;;;;;;;;;;8.70;99.90;;;;;;5039425;28;19981;-67
2022/11/04 06:11:08;;;;;;;;;;;8.70;99.90;;;;;;5045298;28;19984;-69
2022/11/04 06:13:42;;;;;;;;;;;8.70;99.90;;;;;;5044419;28;19992;-68
2022/11/04 06:16:09;;;;;;;;;;;8.70;99.90;;;;;;5044571;28;19928;-68
2022/11/04 06:18:35;;;;;;;;;;;8.70;99.90;;;;;;5045029;28;19956;-71
2022/11/04 06:21:11;;;;;;;;;;;8.70;99.90;;;;;;5045015;28;19956;-66
2022/11/04 06:23:37;;;;;;;;;;;8.70;99.90;;;;;;5044871;28;19983;-68
2022/11/04 06:26:04;;;;;;;;;;;8.70;99.90;;;;;;5044617;28;20172;-68
2022/11/04 06:28:31;;;;;;;;;;;8.70;99.90;;;;;;5044475;28;19991;-68
2022/11/04 06:30:58;;;;;;;;;;;8.70;99.90;;;;;;5044517;28;19952;-68
2022/11/04 06:33:25;;;;;;;;;;;8.70;99.90;;;;;;5044091;28;19921;-68
2022/11/04 06:35:52;;;;;;;;;;;8.70;99.90;;;;;;5044595;28;19925;-68
2022/11/04 06:38:20;;;;;;;;;;;8.70;99.90;;;;;;5044751;28;20171;-68
2022/11/04 06:40:46;;;;;;;;;;;8.70;99.90;;;;;;5044624;28;20175;-68
2022/11/04 06:43:13;;;;;;;;;;;8.70;99.90;;;;;;5044539;28;19993;-68
2022/11/04 06:45:40;;;;;;;;;;;8.70;99.90;;;;;;5024323;28;19996;-69
2022/11/04 06:48:06;;;;;;;;;;;8.70;99.90;;;;;;5024741;28;19956;-68
2022/11/04 06:50:33;;;;;;;;;;;8.70;99.90;;;;;;5024869;28;19992;-68
2022/11/04 06:52:59;;;;;;;;;;;8.60;99.90;;;;;;5024641;28;19988;-70
2022/11/04 06:55:27;;;;;;;;;;;8.70;99.90;;;;;;5024348;28;19928;-68
2022/11/04 06:57:54;;;;;;;;;;;8.70;99.90;;;;;;5024664;28;19993;-68
2022/11/04 07:00:21;;;;;;;;;;;8.70;99.90;;;;;;5024570;28;20001;-68
2022/11/04 07:02:47;;;;;;;;;;;8.70;99.90;;;;;;5032553;28;19949;-68
2022/11/04 07:05:14;;;;;;;;;;;8.70;99.90;;;;;;5040209;28;20007;-67
2022/11/04 07:07:41;;;;;;;;;;;8.70;99.90;;;;;;5044201;28;19992;-68
2022/11/04 07:10:07;;;;;;;;;;;8.60;99.90;;;;;;5043851;28;19988;-68
2022/11/04 07:12:35;;;;;;;;;;;8.60;99.90;;;;;;5044103;28;19928;-70
2022/11/04 07:15:02;;;;;;;;;;;8.60;99.90;;;;;;5043609;28;20166;-70
2022/11/04 07:17:29;;;;;;;;;;;8.60;99.90;;;;;;5043656;28;19980;-67
2022/11/04 07:19:55;;;;;;;;;;;8.70;99.90;;;;;;5044065;28;20156;-68
2022/11/04 07:22:22;;;;;;;;;;;8.70;99.90;;;;;;5044141;28;20162;-68
2022/11/04 07:24:49;;;;;;;;;;;8.80;99.90;;;;;;5043449;28;20271;-70
2022/11/04 07:27:15;;;;;;;;;;;8.80;99.90;;;;;;5043951;28;19925;-69
2022/11/04 07:29:43;;;;;;;;;;;8.80;99.90;;;;;;5043970;28;19984;-69
2022/11/04 07:32:10;;;;;;;;;;;8.80;99.90;;;;;;5043907;28;20171;-67
2022/11/04 07:34:37;;;;;;;;;;;8.80;99.90;;;;;;5043203;28;19997;-69
2022/11/04 07:37:03;;;;;;;;;;;8.80;99.90;;;;;;5043880;28;19989;-68
2022/11/04 07:39:30;;;;;;;;;;;8.80;99.90;;;;;;5043939;28;19964;-69
2022/11/04 07:41:57;;;;;;;;;;;8.80;99.90;;;;;;5043829;28;19963;-68
2022/11/04 07:44:23;;;;;;;;;;;8.80;99.90;;;;;;5045895;28;19977;-69
2022/11/04 07:46:51;;;;;;;;;;;8.80;99.90;;;;;;5034571;28;19953;-68
2022/11/04 07:49:18;;;;;;;;;;;8.90;99.90;;;;;;5027850;28;19922;-68
2022/11/04 07:51:44;;;;;;;;;;;8.90;99.90;;;;;;5028064;28;19988;-68
2022/11/04 07:54:11;;;;;;;;;;;8.90;99.90;;;;;;5027804;28;20189;-69
2022/11/04 07:56:38;;;;;;;;;;;8.90;99.90;;;;;;5027738;28;20000;-68
2022/11/04 07:59:05;;;;;;;;;;;9.00;99.90;;;;;;5041191;28;19959;-68
2022/11/04 08:01:32;;;;;;;;;;;8.90;99.90;;;;;;5046932;28;19961;-68
2022/11/04 08:04:00;;;;;;;;;;;9.00;99.90;;;;;;5039345;28;19921;-68
2022/11/04 08:06:27;;;;;;;;;;;8.90;99.90;;;;;;5047135;28;19988;-68
2022/11/04 08:08:53;;;;;;;;;;;8.90;99.90;;;;;;5031949;28;19921;-68
2022/11/04 08:11:22;;;;;;;;;;;8.90;99.90;;;;;;5028017;28;19956;-69
2022/11/04 08:13:49;;;;;;;;;;;8.90;99.90;;;;;;5027522;28;19944;-68
2022/11/04 08:16:16;;;;;;;;;;;8.90;99.90;;;;;;5026947;28;19927;-68
2022/11/04 08:18:43;;;;;;;;;;;8.90;99.90;;;;;;5027343;28;19969;-68
2022/11/04 08:21:12;;;;;;;;;;;8.90;99.90;;;;;;5027515;28;19921;-70
2022/11/04 08:23:38;;;;;;;;;;;8.90;99.90;;;;;;5027168;28;20276;-68
2022/11/04 08:26:07;;;;;;;;;;;8.90;99.90;;;;;;5026989;28;19988;-68
2022/11/04 08:28:34;;;;;;;;;;;9.00;99.90;;;;;;5027487;28;19996;-68
2022/11/04 08:31:01;;;;;;;;;;;9.00;99.90;;;;;;5027126;28;19984;-68
2022/11/04 08:33:29;;;;;;;;;;;9.00;99.90;;;;;;5027173;28;20128;-68
2022/11/04 08:35:59;;;;;;;;;;;9.00;99.90;;;;;;5032331;28;20113;-67
2022/11/04 08:38:27;;;;;;;;;;;9.10;99.90;;;;;;5046918;28;19988;-67
2022/11/04 08:40:56;;;;;;;;;;;9.10;99.90;;;;;;5046889;28;20116;-68
2022/11/04 08:43:22;;;;;;;;;;;9.10;99.90;;;;;;5046465;28;19993;-69
2022/11/04 08:45:49;;;;;;;;;;;9.10;99.90;;;;;;5046403;28;19988;-69
2022/11/04 08:48:16;;;;;;;;;;;9.10;99.90;;;;;;5046694;28;19964;-68
2022/11/04 08:50:43;;;;;;;;;;;9.10;99.90;;;;;;5046466;28;19944;-70
2022/11/04 08:53:25;;;;;;;;;;;9.10;99.90;;;;;;5045659;28;19993;-69
2022/11/04 08:55:53;;;;;;;;;;;9.20;99.90;;;;;;5045336;28;19921;-68
2022/11/04 08:58:20;;;;;;;;;;;9.20;99.90;;;;;;5046559;28;19921;-68
2022/11/04 09:00:48;;;;;;;;;;;9.20;99.90;;;;;;5046482;28;20181;-69
2022/11/04 09:03:14;;;;;;;;;;;9.30;99.90;;;;;;5040146;28;19933;-68
2022/11/04 09:05:43;;;;;;;;;;;9.30;99.90;;;;;;5042326;28;19986;-67
2022/11/04 09:08:10;;;;;;;;;;;9.30;99.90;;;;;;5036095;28;19921;-68
2022/11/04 09:10:40;;;;;;;;;;;9.30;99.90;;;;;;5045905;28;20264;-67
2022/11/04 09:13:09;;;;;;;;;;;9.30;99.90;;;;;;5046134;28;19963;-68
2022/11/04 09:15:36;;;;;;;;;;;9.30;99.90;;;;;;5045363;28;19933;-69
2022/11/04 09:18:02;;;;;;;;;;;9.30;99.90;;;;;;5046223;28;19952;-68
2022/11/04 09:20:30;;;;;;;;;;;9.40;99.90;;;;;;5042047;28;19949;-68
2022/11/04 09:22:57;;;;;;;;;;;9.40;99.90;;;;;;5026260;28;19929;-68
2022/11/04 09:25:23;;;;;;;;;;;9.40;99.90;;;;;;5025670;28;20248;-68
2022/11/04 09:27:50;;;;;;;;;;;9.40;99.90;;;;;;5026153;28;19984;-69
2022/11/04 09:30:18;;;;;;;;;;;9.40;99.90;;;;;;5026071;28;19988;-68
2022/11/04 09:32:45;;;;;;;;;;;9.40;99.90;;;;;;5026005;28;20167;-68
2022/11/04 09:35:11;;;;;;;;;;;9.50;99.90;;;;;;5025511;28;20224;-68
2022/11/04 09:37:38;;;;;;;;;;;9.50;99.90;;;;;;5025858;28;19921;-69
2022/11/04 09:40:05;;;;;;;;;;;9.50;99.90;;;;;;5025961;28;20081;-69
2022/11/04 09:42:37;;;;;;;;;;;9.60;99.90;;;;;;5025874;28;20171;-67
2022/11/04 09:45:05;;;;;;;;;;;9.60;99.90;;;;;;5025452;28;19992;-68
2022/11/04 09:47:33;;;;;;;;;;;9.60;99.90;;;;;;5025793;28;19922;-68
2022/11/04 09:50:00;;;;;;;;;;;9.60;99.90;;;;;;5025321;28;19968;-68
2022/11/04 09:52:28;;;;;;;;;;;9.60;99.90;;;;;;5025583;28;19953;-68
2022/11/04 09:54:58;;;;;;;;;;;9.60;99.90;;;;;;5025006;28;19959;-69
2022/11/04 09:57:25;;;;;;;;;;;9.60;99.90;;;;;;5025274;28;19967;-68
2022/11/04 09:59:52;;;;;;;;;;;9.60;99.90;;;;;;5025205;28;20213;-68
2022/11/04 10:02:24;;;;;;;;;;;9.60;99.90;;;;;;5033898;28;19921;-68
2022/11/04 10:05:01;;;;;;;;;;;9.60;99.90;;;;;;5043805;28;19959;-69
2022/11/04 10:07:37;;;;;;;;;;;9.60;99.90;;;;;;5031903;28;19921;-68
2022/11/04 10:10:09;;;;;;;;;;;9.60;99.90;;;;;;5025555;28;19960;-68
2022/11/04 10:12:55;;;;;;;;;;;9.60;99.90;;;;;;5025263;28;19970;-68
2022/11/04 10:15:31;;;;;;;;;;;9.60;99.90;;;;;;5024884;28;19921;-69
2022/11/04 10:18:02;;;;;;;;;;;9.60;99.90;;;;;;5025305;28;19921;-68
2022/11/04 10:20:35;;;;;;;;;;;9.70;99.90;;;;;;5025285;28;19988;-68
2022/11/04 10:23:06;;;;;;;;;;;9.70;99.90;;;;;;5025232;28;19960;-68
2022/11/04 10:25:36;;;;;;;;;;;9.80;99.90;;;;;;5024968;28;19928;-68
2022/11/04 10:28:03;;;;;;;;;;;9.80;99.90;;;;;;5024701;28;19949;-70
2022/11/04 10:30:30;;;;;;;;;;;9.80;99.90;;;;;;5039424;28;20209;-69
2022/11/04 10:33:03;;;;;;;;;;;9.80;99.90;;;;;;5043723;28;20184;-68
2022/11/04 10:35:31;;;;;;;;;;;9.80;99.90;;;;;;5043930;28;19987;-68
2022/11/04 10:38:08;;;;;;;;;;;9.80;99.90;;;;;;5043823;28;19984;-69
2022/11/04 10:40:37;;;;;;;;;;;9.90;99.90;;;;;;5043905;28;20225;-69
2022/11/04 10:43:07;;;;;;;;;;;9.90;99.90;;;;;;5035427;28;19921;-69
2022/11/04 10:45:36;;;;;;;;;;;9.90;99.90;;;;;;5042433;28;20224;-69
2022/11/04 10:48:06;;;;;;;;;;;10.00;99.90;;;;;;5024351;28;19984;-69
2022/11/04 10:50:36;;;;;;;;;;;9.90;99.90;;;;;;5030659;28;19991;-69
2022/11/04 10:53:11;;;;;;;;;;;9.90;99.90;;;;;;5043652;28;19921;-69
2022/11/04 10:55:40;;;;;;;;;;;9.90;99.90;;;;;;5043312;28;19928;-69
2022/11/04 10:58:12;;;;;;;;;;;9.90;99.90;;;;;;5043504;28;20145;-69
2022/11/04 11:00:39;;;;;;;;;;;9.90;99.90;;;;;;5024572;28;19988;-69
2022/11/04 11:03:22;;;;;;;;;;;10.00;99.90;;;;;;5024106;28;19928;-69
2022/11/04 11:05:49;;;;;;;;;;;10.00;99.90;;;;;;5023867;28;19984;-69
2022/11/04 11:08:27;;;;;;;;;;;10.10;99.90;;;;;;5034147;28;20292;-70
2022/11/04 11:10:55;;;;;;;;;;;10.10;99.90;;;;;;5043839;28;19983;-69
2022/11/04 11:13:26;;;;;;;;;;;10.20;99.90;;;;;;5043413;28;20267;-69
2022/11/04 11:16:04;;;;;;;;;;;10.20;99.90;;;;;;5043064;28;19929;-69
2022/11/04 11:18:31;;;;;;;;;;;10.20;99.90;;;;;;5043226;28;20191;-69
2022/11/04 11:21:06;;;;;;;;;;;10.30;99.90;;;;;;5043621;28;19955;-69
2022/11/04 11:23:39;;;;;;;;;;;10.30;99.90;;;;;;5043696;28;19963;-69
2022/11/04 11:26:07;;;;;;;;;;;10.40;99.90;;;;;;5042927;28;20251;-69
2022/11/04 11:28:36;;;;;;;;;;;10.40;99.90;;;;;;5043640;28;19988;-70
2022/11/04 11:31:11;;;;;;;;;;;10.50;99.90;;;;;;5043000;28;20278;-69
2022/11/04 11:33:41;;;;;;;;;;;10.50;99.90;;;;;;5043165;28;20180;-69
2022/11/04 11:36:11;;;;;;;;;;;10.50;99.90;;;;;;5043252;28;19952;-68
2022/11/04 11:38:51;;;;;;;;;;;10.50;99.90;;;;;;5043827;28;19984;-69
2022/11/04 11:41:22;;;;;;;;;;;10.60;99.90;;;;;;5043223;28;20157;-68
2022/11/04 11:43:50;;;;;;;;;;;10.60;99.90;;;;;;5026449;28;20090;-69
2022/11/04 11:46:21;;;;;;;;;;;10.60;99.90;;;;;;5022207;28;19971;-68
2022/11/04 11:48:50;;;;;;;;;;;10.70;99.90;;;;;;5022492;28;19945;-69
2022/11/04 11:51:23;;;;;;;;;;;10.70;99.90;;;;;;5023375;28;19984;-69
2022/11/04 11:54:02;;;;;;;;;;;10.70;99.90;;;;;;5023224;28;19989;-69
2022/11/04 11:56:30;;;;;;;;;;;10.70;99.90;;;;;;5022721;28;19956;-69
2022/11/04 11:59:06;;;;;;;;;;;10.70;99.90;;;;;;5023694;28;19984;-69
2022/11/04 12:01:36;;;;;;;;;;;10.70;99.90;;;;;;5022551;28;19928;-69
2022/11/04 12:04:03;;;;;;;;;;;10.80;99.90;;;;;;5023546;28;19952;-69
2022/11/04 12:06:38;;;;;;;;;;;10.90;99.90;;;;;;5023237;28;20160;-70
2022/11/04 12:09:17;;;;;;;;;;;10.90;99.90;;;;;;5040386;28;19989;-68
2022/11/04 12:11:47;;;;;;;;;;;11.00;99.90;;;;;;5042923;28;20205;-69
2022/11/04 12:14:16;;;;;;;;;;;11.00;99.90;;;;;;5042987;28;19971;-68
2022/11/04 12:16:50;;;;;;;;;;;11.10;99.90;;;;;;5042815;28;19956;-68
2022/11/04 12:19:28;;;;;;;;;;;11.20;99.90;;;;;;5041476;28;19956;-70
2022/11/04 12:21:58;;;;;;;;;;;11.30;99.90;;;;;;5042788;28;19953;-70
2022/11/04 12:24:30;;;;;;;;;;;11.20;99.90;;;;;;5042726;28;19984;-71
2022/11/04 12:27:01;;;;;;;;;;;11.30;99.90;;;;;;5042993;28;19921;-69
2022/11/04 12:29:36;;;;;;;;;;;11.40;99.90;;;;;;5042811;28;20236;-69
2022/11/04 12:32:09;;;;;;;;;;;11.30;99.90;;;;;;5046593;28;19985;-69
2022/11/04 12:34:44;;;;;;;;;;;11.40;99.90;;;;;;5046635;28;19920;-70
2022/11/04 12:37:19;;;;;;;;;;;11.40;99.90;;;;;;5046184;28;19978;-69
2022/11/04 12:39:54;;;;;;;;;;;11.30;99.90;;;;;;5046418;28;19940;-69
2022/11/04 12:42:24;;;;;;;;;;;11.40;99.90;;;;;;5046331;28;20228;-70
2022/11/04 12:44:59;;;;;;;;;;;11.50;99.90;;;;;;5046019;28;19959;-68
2022/11/04 12:47:32;;;;;;;;;;;11.40;99.90;;;;;;5046087;28;19952;-70
2022/11/04 12:50:20;;;;;;;;;;;11.40;99.90;;;;;;5046258;28;20125;-69
2022/11/04 12:52:54;;;;;;;;;;;11.50;99.90;;;;;;5046695;28;20149;-69
2022/11/04 12:55:27;;;;;;;;;;;11.50;99.90;;;;;;5028084;28;19982;-69
2022/11/04 12:57:57;;;;;;;;;;;11.50;99.90;;;;;;5026371;28;19960;-69
2022/11/04 13:00:29;;;;;;;;;;;11.50;99.90;;;;;;5025173;28;20121;-69
2022/11/04 13:02:59;;;;;;;;;;;11.50;99.90;;;;;;5026267;28;19921;-69
2022/11/04 13:05:33;;;;;;;;;;;11.40;99.90;;;;;;5026020;28;20094;-69
2022/11/04 13:08:04;;;;;;;;;;;11.40;99.90;;;;;;5034199;28;19963;-69
2022/11/04 13:10:38;;;;;;;;;;;11.40;99.90;;;;;;5045680;28;20199;-69
2022/11/04 13:13:06;;;;;;;;;;;11.30;99.90;;;;;;5045686;28;20204;-69
2022/11/04 13:15:37;;;;;;;;;;;11.30;99.90;;;;;;5045408;28;19996;-69
2022/11/04 13:18:05;;;;;;;;;;;11.30;99.90;;;;;;5045697;28;19980;-69
2022/11/04 13:20:34;;;;;;;;;;;11.30;99.90;;;;;;5045819;28;19980;-69
2022/11/04 13:23:04;;;;;;;;;;;11.30;99.90;;;;;;5045771;28;20247;-69
2022/11/04 13:25:32;;;;;;;;;;;11.30;99.90;;;;;;5045489;28;20299;-69
2022/11/04 13:28:00;;;;;;;;;;;11.30;99.90;;;;;;5040136;28;19921;-70
2022/11/04 13:30:31;;;;;;;;;;;11.30;99.90;;;;;;5025860;28;19956;-68
2022/11/04 13:33:01;;;;;;;;;;;11.30;99.90;;;;;;5025570;28;19988;-69
2022/11/04 13:35:32;;;;;;;;;;;11.30;99.90;;;;;;5025341;28;19961;-69
2022/11/04 13:38:02;;;;;;;;;;;11.30;99.90;;;;;;5025480;28;19922;-69
2022/11/04 13:40:33;;;;;;;;;;;11.30;99.90;;;;;;5025702;28;19929;-69
2022/11/04 13:45:56;;;;;;;;;;;11.20;99.90;;;;;;5025146;28;19964;-69
2022/11/04 13:48:25;;;;;;;;;;;11.30;99.90;;;;;;5025586;28;19996;-69
2022/11/04 13:50:56;;;;;;;;;;;11.30;99.90;;;;;;5025287;28;20233;-68
2022/11/04 13:53:40;;;;;;;;;;;11.30;99.90;;;;;;5024988;28;20244;-69
2022/11/04 13:56:07;;;;;;;;;;;11.40;99.90;;;;;;5025166;28;19921;-69
2022/11/04 13:58:35;;;;;;;;;;;11.40;99.90;;;;;;5025338;28;20015;-69
2022/11/04 14:01:12;;;;;;;;;;;11.30;99.90;;;;;;5025420;28;19922;-69
2022/11/04 14:03:39;;;;;;;;;;;11.40;99.90;;;;;;5025182;28;19956;-69
2022/11/04 14:06:07;;;;;;;;;;;11.30;99.90;;;;;;5024853;28;19925;-70
2022/11/04 14:08:34;;;;;;;;;;;11.40;99.90;;;;;;5037955;28;20092;-69
2022/11/04 14:11:11;;;;;;;;;;;11.40;99.90;;;;;;5044899;28;19948;-69
2022/11/04 14:14:00;;;;;;;;;;;11.40;99.90;;;;;;5044429;28;19937;-71
2022/11/04 14:16:41;;;;;;;;;;;11.30;99.90;;;;;;5044172;28;19984;-70
2022/11/04 14:19:26;;;;;;;;;;;11.40;99.90;;;;;;5044453;28;19975;-69
2022/11/04 14:22:04;;;;;;;;;;;11.30;99.90;;;;;;5030620;28;20149;-69
2022/11/04 14:24:32;;;;;;;;;;;11.20;99.90;;;;;;5044037;28;19959;-69
2022/11/04 14:26:59;;;;;;;;;;;11.20;99.90;;;;;;5044532;28;19989;-69
2022/11/04 14:29:26;;;;;;;;;;;11.20;99.90;;;;;;5044192;28;19948;-69
2022/11/04 14:31:55;;;;;;;;;;;11.10;99.90;;;;;;5044537;28;19952;-69
2022/11/04 14:34:24;;;;;;;;;;;11.10;99.90;;;;;;5044227;28;19924;-68
2022/11/04 14:36:55;;;;;;;;;;;11.10;99.90;;;;;;5044095;28;19984;-69
2022/11/04 14:39:24;;;;;;;;;;;11.10;99.90;;;;;;5044386;28;20004;-68
2022/11/04 14:41:52;;;;;;;;;;;11.10;99.90;;;;;;5043837;28;19992;-68
2022/11/04 14:44:21;;;;;;;;;;;11.10;99.90;;;;;;5044188;28;19993;-68
2022/11/04 14:46:48;;;;;;;;;;;11.10;99.90;;;;;;5043533;28;19959;-69
2022/11/04 14:49:28;;;;;;;;;;;11.10;99.90;;;;;;5044255;28;20163;-69
2022/11/04 14:51:54;;;;;;;;;;;11.10;99.90;;;;;;5043742;28;20255;-69
2022/11/04 14:54:24;;;;;;;;;;;11.00;99.90;;;;;;5043435;28;19996;-69
2022/11/04 14:56:51;;;;;;;;;;;11.00;99.90;;;;;;5043717;28;19922;-69
2022/11/04 14:59:21;;;;;;;;;;;11.00;99.90;;;;;;5028542;28;19959;-70
2022/11/04 15:01:48;;;;;;;;;;;11.10;99.90;;;;;;5024078;28;20090;-68
2022/11/04 15:04:21;;;;;;;;;;;11.00;99.90;;;;;;5023557;28;19945;-69
2022/11/04 15:06:54;;;;;;;;;;;11.10;99.90;;;;;;5031481;28;20165;-71
2022/11/04 15:09:28;;;;;;;;;;;11.10;99.90;;;;;;5043442;28;19921;-68
2022/11/04 15:15:00;;;;;;;;;;;11.00;99.90;;;;;;4982204;28;19922;-68
2022/11/04 15:17:28;;;;;;;;;;;11.00;99.90;;;;;;4982679;28;19945;-69